Flinterbrise — PHCA — position and weather

sailwx.info

Track history (hours):
 
Tides and Currents Weather Stations Pressure Air Temp Water Temp Dewpoint Dewpoint Depression Visibility Wind Speed Wind Dir Waves Ship Positions

Flinterbrise

Last reported at 2015-Jan-26 09:32 UTC. Time now 2015-Jan-26 22:32 UTC.
Position N 57°50' E 009°55'.

Length 83 m; draft 5.5 m.

Type: Ship. MMSI: 246044000.

Date/timePositionNaut miles runAvg speedWind from/ knotsBaromVisibWave heightAir tempDewpointWater temp
2015-Jan-26 09:32N 57°50' E 009°55'8 7.8
2015-Jan-26 08:32N 57°50' E 010°10'27 7.8
2015-Jan-26 05:09N 57°43' E 010°58'6 9.2
2015-Jan-26 04:33N 57°39' E 011°06'1010.4
2015-Jan-26 03:33N 57°32' E 011°19'9 9.4
2015-Jan-26 02:33N 57°24' E 011°30'1010.0
2015-Jan-26 01:33N 57°15' E 011°38'10 9.7
2015-Jan-26 00:31N 57°06' E 011°45'10 9.9
2015-Jan-25 23:33N 56°57' E 011°52'10 9.9
2015-Jan-25 22:33N 56°48' E 011°59'10 9.6
2015-Jan-25 21:33N 56°39' E 012°07'10 9.5
2015-Jan-25 20:33N 56°31' E 012°15'10 9.7
2015-Jan-25 19:33N 56°22' E 012°21'1010.2
2015-Jan-25 18:33N 56°12' E 012°28'1111.2
2015-Jan-25 17:33N 56°03' E 012°40'1010.3
2015-Jan-25 16:33N 55°53' E 012°44'10 9.7
2015-Jan-25 15:33N 55°44' E 012°41'9 9.3
2015-Jan-25 14:33N 55°34' E 012°42'9 9.1
2015-Jan-25 13:33N 55°25' E 012°42'8 7.8
2015-Jan-25 12:33N 55°18' E 012°44'9 9.0
2015-Jan-25 11:33N 55°16' E 012°59'10 9.2
2015-Jan-25 10:27N 55°15' E 013°17'38 9.4
2015-Jan-25 06:25N 55°19' E 014°23'12 9.8
2015-Jan-25 05:11N 55°27' E 014°39'6 9.7
2015-Jan-25 04:33N 55°30' E 014°49'9 9.3
2015-Jan-25 03:33N 55°35' E 015°02'  
2015-Jan-19 12:32N 55°33' E 015°11'1111.1
2015-Jan-19 11:33N 55°28' E 014°54'1111.0
2015-Jan-19 10:33N 55°22' E 014°38'1212.0
2015-Jan-19 09:33N 55°13' E 014°25'1010.3
2015-Jan-19 08:33N 55°05' E 014°13'10 9.9
2015-Jan-19 07:33N 54°60' E 013°58'10 9.7
2015-Jan-19 06:32N 54°56' E 013°42'9 9.4
2015-Jan-19 05:33N 54°53' E 013°27'21 9.2
2015-Jan-19 03:13N 54°46' E 012°52'6 8.9
2015-Jan-19 02:33N 54°44' E 012°42'9 9.2
2015-Jan-19 01:33N 54°39' E 012°29'9 9.2
2015-Jan-19 00:32N 54°32' E 012°18'9 9.0
2015-Jan-18 23:33N 54°25' E 012°10'9 9.3
2015-Jan-18 22:33N 54°25' E 011°54'9 9.2
2015-Jan-18 21:33N 54°27' E 011°38'9 9.2
2015-Jan-18 20:33N 54°31' E 011°24'9 8.7
2015-Jan-18 19:33N 54°34' E 011°10'28 9.3
2015-Jan-18 16:34N 54°30' E 010°22'10 9.6
2015-Jan-18 15:33N 54°23' E 010°11'3 2.8
2015-Jan-18 14:33N 54°22' E 010°07'8 7.9
2015-Jan-18 13:33N 54°21' E 009°53'4 4.3
2015-Jan-18 12:33N 54°21' E 009°46'9 6.9
2015-Jan-18 11:13N 54°14' E 009°36'13 7.9
2015-Jan-18 09:32N 54°05' E 009°19'8 8.4
2015-Jan-18 08:33N 53°57' E 009°14'5 4.8
2015-Jan-18 07:33N 53°54' E 009°09'1 1.4
2015-Jan-18 06:33N 53°53' E 009°11'0 0.2
2015-Jan-18 05:33N 53°53' E 009°11'7 7.0
2015-Jan-18 04:33N 53°50' E 009°22'1313.0
2015-Jan-18 03:33N 53°38' E 009°32'1212.3
2015-Jan-18 02:33N 53°33' E 009°51'4 4.0
2015-Jan-18 01:33N 53°31' E 009°57'0 0.0
2015-Jan-18 00:33N 53°31' E 009°57'0 0.0
2015-Jan-17 23:33N 53°31' E 009°57'0 0.0
2015-Jan-17 22:33N 53°31' E 009°57'0 0.0
2015-Jan-17 21:33N 53°31' E 009°57'0 0.0
2015-Jan-17 20:33N 53°31' E 009°57'0 0.0
2015-Jan-17 19:33N 53°31' E 009°57'0 0.0
2015-Jan-17 18:33N 53°31' E 009°57'0 0.1
2015-Jan-17 17:33N 53°31' E 009°57'0 0.0
2015-Jan-17 16:33N 53°31' E 009°57'0 0.0
2015-Jan-17 15:33N 53°31' E 009°57'0 0.0
2015-Jan-17 14:33N 53°31' E 009°57'0 0.0
2015-Jan-17 13:33N 53°31' E 009°57'0 0.0
2015-Jan-17 12:33N 53°31' E 009°57'0 0.0
2015-Jan-17 11:33N 53°31' E 009°57'0 0.0
2015-Jan-17 10:33N 53°31' E 009°57'0 0.0
2015-Jan-17 09:33N 53°31' E 009°57'0 0.0
2015-Jan-17 08:33N 53°31' E 009°57'0 0.0
2015-Jan-17 07:33N 53°31' E 009°57'0 0.0
2015-Jan-17 06:33N 53°31' E 009°57'0 0.0
2015-Jan-17 05:33N 53°31' E 009°57'0 0.0
2015-Jan-17 04:33N 53°31' E 009°57'0 0.0
2015-Jan-17 03:33N 53°31' E 009°57'0 0.0
2015-Jan-17 02:31N 53°31' E 009°57'0 0.0
2015-Jan-17 01:31N 53°31' E 009°57'0 0.0
2015-Jan-17 00:31N 53°31' E 009°57'0 0.0
2015-Jan-16 23:22N 53°31' E 009°57'0 0.0
2015-Jan-16 22:31N 53°31' E 009°57'0 0.0
2015-Jan-16 21:31N 53°31' E 009°57'0 0.0
2015-Jan-16 20:31N 53°31' E 009°57'0 0.0
2015-Jan-16 19:31N 53°31' E 009°57'0 0.0
2015-Jan-16 18:28N 53°31' E 009°57'0 0.0
2015-Jan-16 17:31N 53°31' E 009°57'0 0.0
2015-Jan-16 16:28N 53°31' E 009°57'0 0.0
2015-Jan-16 15:28N 53°31' E 009°57'0 0.0
2015-Jan-16 14:31N 53°31' E 009°57'0 0.0
2015-Jan-16 13:28N 53°31' E 009°57'0 0.0
2015-Jan-16 12:28N 53°31' E 009°57'0 0.0
2015-Jan-16 11:28N 53°31' E 009°57'0 0.0
2015-Jan-16 10:28N 53°31' E 009°57'  
Track history (hours):
 
Tides and Currents Weather Stations Pressure Air Temp Water Temp Dewpoint Dewpoint Depression Visibility Wind Speed Wind Dir Waves Ship Positions

Flinterbrise

Last reported at 2015-Jan-26 09:32 UTC. Time now 2015-Jan-26 22:32 UTC.
Position N 57°50' E 009°55'.

Length 83 m; draft 5.5 m.

Type: Ship. MMSI: 246044000.

Date/timePositionNaut miles runAvg speedWind from/ knotsBaromVisibWave heightAir tempDewpointWater temp
2015-Jan-26 09:32N 57°50' E 009°55'8 7.8
2015-Jan-26 08:32N 57°50' E 010°10'27 7.8
2015-Jan-26 05:09N 57°43' E 010°58'6 9.2
2015-Jan-26 04:33N 57°39' E 011°06'1010.4
2015-Jan-26 03:33N 57°32' E 011°19'9 9.4
2015-Jan-26 02:33N 57°24' E 011°30'1010.0
2015-Jan-26 01:33N 57°15' E 011°38'10 9.7
2015-Jan-26 00:31N 57°06' E 011°45'10 9.9
2015-Jan-25 23:33N 56°57' E 011°52'10 9.9
2015-Jan-25 22:33N 56°48' E 011°59'10 9.6
2015-Jan-25 21:33N 56°39' E 012°07'10 9.5
2015-Jan-25 20:33N 56°31' E 012°15'10 9.7
2015-Jan-25 19:33N 56°22' E 012°21'1010.2
2015-Jan-25 18:33N 56°12' E 012°28'1111.2
2015-Jan-25 17:33N 56°03' E 012°40'1010.3
2015-Jan-25 16:33N 55°53' E 012°44'10 9.7
2015-Jan-25 15:33N 55°44' E 012°41'9 9.3
2015-Jan-25 14:33N 55°34' E 012°42'9 9.1
2015-Jan-25 13:33N 55°25' E 012°42'8 7.8
2015-Jan-25 12:33N 55°18' E 012°44'9 9.0
2015-Jan-25 11:33N 55°16' E 012°59'10 9.2
2015-Jan-25 10:27N 55°15' E 013°17'38 9.4
2015-Jan-25 06:25N 55°19' E 014°23'12 9.8
2015-Jan-25 05:11N 55°27' E 014°39'6 9.7
2015-Jan-25 04:33N 55°30' E 014°49'9 9.3
2015-Jan-25 03:33N 55°35' E 015°02'  
2015-Jan-19 12:32N 55°33' E 015°11'1111.1
2015-Jan-19 11:33N 55°28' E 014°54'1111.0
2015-Jan-19 10:33N 55°22' E 014°38'1212.0
2015-Jan-19 09:33N 55°13' E 014°25'1010.3
2015-Jan-19 08:33N 55°05' E 014°13'10 9.9
2015-Jan-19 07:33N 54°60' E 013°58'10 9.7
2015-Jan-19 06:32N 54°56' E 013°42'9 9.4
2015-Jan-19 05:33N 54°53' E 013°27'21 9.2
2015-Jan-19 03:13N 54°46' E 012°52'6 8.9
2015-Jan-19 02:33N 54°44' E 012°42'9 9.2
2015-Jan-19 01:33N 54°39' E 012°29'9 9.2
2015-Jan-19 00:32N 54°32' E 012°18'9 9.0
2015-Jan-18 23:33N 54°25' E 012°10'9 9.3
2015-Jan-18 22:33N 54°25' E 011°54'9 9.2
2015-Jan-18 21:33N 54°27' E 011°38'9 9.2
2015-Jan-18 20:33N 54°31' E 011°24'9 8.7
2015-Jan-18 19:33N 54°34' E 011°10'28 9.3
2015-Jan-18 16:34N 54°30' E 010°22'10 9.6
2015-Jan-18 15:33N 54°23' E 010°11'3 2.8
2015-Jan-18 14:33N 54°22' E 010°07'8 7.9
2015-Jan-18 13:33N 54°21' E 009°53'4 4.3
2015-Jan-18 12:33N 54°21' E 009°46'9 6.9
2015-Jan-18 11:13N 54°14' E 009°36'13 7.9
2015-Jan-18 09:32N 54°05' E 009°19'8 8.4
2015-Jan-18 08:33N 53°57' E 009°14'5 4.8
2015-Jan-18 07:33N 53°54' E 009°09'1 1.4
2015-Jan-18 06:33N 53°53' E 009°11'0 0.2
2015-Jan-18 05:33N 53°53' E 009°11'7 7.0
2015-Jan-18 04:33N 53°50' E 009°22'1313.0
2015-Jan-18 03:33N 53°38' E 009°32'1212.3
2015-Jan-18 02:33N 53°33' E 009°51'4 4.0
2015-Jan-18 01:33N 53°31' E 009°57'0 0.0
2015-Jan-18 00:33N 53°31' E 009°57'0 0.0
2015-Jan-17 23:33N 53°31' E 009°57'0 0.0
2015-Jan-17 22:33N 53°31' E 009°57'0 0.0
2015-Jan-17 21:33N 53°31' E 009°57'0 0.0
2015-Jan-17 20:33N 53°31' E 009°57'0 0.0
2015-Jan-17 19:33N 53°31' E 009°57'0 0.0
2015-Jan-17 18:33N 53°31' E 009°57'0 0.1
2015-Jan-17 17:33N 53°31' E 009°57'0 0.0
2015-Jan-17 16:33N 53°31' E 009°57'0 0.0
2015-Jan-17 15:33N 53°31' E 009°57'0 0.0
2015-Jan-17 14:33N 53°31' E 009°57'0 0.0
2015-Jan-17 13:33N 53°31' E 009°57'0 0.0
2015-Jan-17 12:33N 53°31' E 009°57'0 0.0
2015-Jan-17 11:33N 53°31' E 009°57'0 0.0
2015-Jan-17 10:33N 53°31' E 009°57'0 0.0
2015-Jan-17 09:33N 53°31' E 009°57'0 0.0
2015-Jan-17 08:33N 53°31' E 009°57'0 0.0
2015-Jan-17 07:33N 53°31' E 009°57'0 0.0
2015-Jan-17 06:33N 53°31' E 009°57'0 0.0
2015-Jan-17 05:33N 53°31' E 009°57'0 0.0
2015-Jan-17 04:33N 53°31' E 009°57'0 0.0
2015-Jan-17 03:33N 53°31' E 009°57'0 0.0
2015-Jan-17 02:31N 53°31' E 009°57'0 0.0
2015-Jan-17 01:31N 53°31' E 009°57'0 0.0
2015-Jan-17 00:31N 53°31' E 009°57'0 0.0
2015-Jan-16 23:22N 53°31' E 009°57'0 0.0
2015-Jan-16 22:31N 53°31' E 009°57'0 0.0
2015-Jan-16 21:31N 53°31' E 009°57'0 0.0
2015-Jan-16 20:31N 53°31' E 009°57'0 0.0
2015-Jan-16 19:31N 53°31' E 009°57'0 0.0
2015-Jan-16 18:28N 53°31' E 009°57'0 0.0
2015-Jan-16 17:31N 53°31' E 009°57'0 0.0
2015-Jan-16 16:28N 53°31' E 009°57'0 0.0
2015-Jan-16 15:28N 53°31' E 009°57'0 0.0
2015-Jan-16 14:31N 53°31' E 009°57'0 0.0
2015-Jan-16 13:28N 53°31' E 009°57'0 0.0
2015-Jan-16 12:28N 53°31' E 009°57'0 0.0
2015-Jan-16 11:28N 53°31' E 009°57'0 0.0
2015-Jan-16 10:28N 53°31' E 009°57'  

Dump ship's entire track history